KIYA

Abbeville Chris Crusta Memorial Airport

Abbeville, Louisiana, USA
METAR KIYA 161015Z AUTO 03003KT 10SM OVC090 06/03 A3025 RMK AO2 T00600025
Observed Flight Rules
Dec-16 @ 10:15 UTC (29 minutes ago) Visual Flight Rules
Wind Visibility Clouds
30° at 3 knots 10 miles
  • Overcast at 9,000' AGL
Temperatures Readings
Current 6°C / 43°F
Dewpoint 3°C / 37°F
Humidity 81%
Altimeter 30.25" Hg
Pressure 1024 hPa
Elevation 5
METAR KIYA 161015Z AUTO 03003KT 10SM OVC090 06/03 A3025 RMK AO2 T00600025
Observed Flight Rules
Dec-16 @ 10:15 UTC
(29 minutes ago)
VFR
Wind Visibility
30° at 3 knots 10 miles
Clouds
  • Overcast at 9,000' AGL
Temperature Dewpoint
6°C / 43°F 3°C / 37°F
Humidity Altimeter Pressure
81% 30.25" Hg 1024 hPa